Le'a Le'a Elua — LEALEA — position and weather

sailwx.info

Track history (hours):
 
Tides and Currents Weather Stations Pressure Air Temp Water Temp Dewpoint Dewpoint Depression Visibility Wind Speed Wind Dir Waves Ship Positions

Le'a Le'a Elua

Last reported at 2017-Oct-22 11:54 UTC. Time now 2017-Oct-22 21:20 UTC.
Position N 36°59' E 025°22'.

Length 14 m.

MMSI: 239787500.

Date/timePositionNaut miles runAvg speedWind from/ knotsBaromVisibWave heightAir tempDewpointWater temp
2017-Oct-22 11:54N 36°59' E 025°22'3 8.7
2017-Oct-22 11:30N 37°03' E 025°20'4 7.0
2017-Oct-22 11:00N 37°06' E 025°21'1 1.6
2017-Oct-22 10:28N 37°06' E 025°22'0 0.0
2017-Oct-22 09:58N 37°06' E 025°22'0 0.0
2017-Oct-22 09:28N 37°06' E 025°22'0 0.0
2017-Oct-22 08:58N 37°06' E 025°22'0 0.0
2017-Oct-22 08:28N 37°06' E 025°22'0 0.0
2017-Oct-22 07:55N 37°06' E 025°22'0 0.0
2017-Oct-22 07:25N 37°06' E 025°22'0 0.0
2017-Oct-22 06:58N 37°06' E 025°22'0 0.0
2017-Oct-22 06:28N 37°06' E 025°22'0 0.0
2017-Oct-22 05:58N 37°06' E 025°22'0 0.0
2017-Oct-22 05:28N 37°06' E 025°22'0 0.0
2017-Oct-22 04:58N 37°06' E 025°22'0 0.0
2017-Oct-22 04:25N 37°06' E 025°22'0 0.0
2017-Oct-22 03:58N 37°06' E 025°22'0 0.0
2017-Oct-22 03:28N 37°06' E 025°22'0 0.0
2017-Oct-22 02:58N 37°06' E 025°22'0 0.0
2017-Oct-22 02:28N 37°06' E 025°22'0 0.0
2017-Oct-22 01:58N 37°06' E 025°22'0 0.0
2017-Oct-22 01:28N 37°06' E 025°22'0 0.0
2017-Oct-22 00:58N 37°06' E 025°22'0 0.0
2017-Oct-22 00:28N 37°06' E 025°22'0 0.0
2017-Oct-21 23:55N 37°06' E 025°22'0 0.0
2017-Oct-21 23:28N 37°06' E 025°22'0 0.0
2017-Oct-21 22:58N 37°06' E 025°22'0 0.0
2017-Oct-21 22:28N 37°06' E 025°22'0 0.0
2017-Oct-21 21:58N 37°06' E 025°22'0 0.0
2017-Oct-21 21:28N 37°06' E 025°22'0 0.0
2017-Oct-21 20:55N 37°06' E 025°22'0 0.0
2017-Oct-21 20:25N 37°06' E 025°22'0 0.0
2017-Oct-21 19:55N 37°06' E 025°22'0 0.0
2017-Oct-21 19:28N 37°06' E 025°22'0 0.0
2017-Oct-21 18:58N 37°06' E 025°22'0 0.0
2017-Oct-21 18:25N 37°06' E 025°22'0 0.0
2017-Oct-21 17:58N 37°06' E 025°22'0 0.0
2017-Oct-21 17:28N 37°06' E 025°22'0 0.0
2017-Oct-21 16:58N 37°06' E 025°22'0 0.0
2017-Oct-21 16:28N 37°06' E 025°22'0 0.0
2017-Oct-21 15:58N 37°06' E 025°22'0 0.0
2017-Oct-21 15:28N 37°06' E 025°22'0 0.0
2017-Oct-21 14:58N 37°06' E 025°22'0 0.0
2017-Oct-21 14:28N 37°06' E 025°22'0 0.0
2017-Oct-21 13:28N 37°06' E 025°22'0 0.0
2017-Oct-21 12:58N 37°06' E 025°22'0 0.0
2017-Oct-21 12:28N 37°06' E 025°22'0 0.0
2017-Oct-21 11:58N 37°06' E 025°22'0 0.0
2017-Oct-21 11:28N 37°06' E 025°22'0 0.0
2017-Oct-21 10:58N 37°06' E 025°22'0 0.0
2017-Oct-21 10:28N 37°06' E 025°22'0 0.0
2017-Oct-21 09:58N 37°06' E 025°22'0 0.0
2017-Oct-21 09:28N 37°06' E 025°22'0 0.0
2017-Oct-21 08:55N 37°06' E 025°22'0 0.0
2017-Oct-21 08:28N 37°06' E 025°22'1 3.0
2017-Oct-21 08:00N 37°06' E 025°21'4 8.1
2017-Oct-21 07:30N 37°03' E 025°17'2 2.6
2017-Oct-21 06:52N 37°02' E 025°16'0 0.0
2017-Oct-21 06:28N 37°02' E 025°16'0 0.0
2017-Oct-21 05:58N 37°02' E 025°16'0 0.0
2017-Oct-21 05:25N 37°02' E 025°16'0 0.0
2017-Oct-21 04:58N 37°02' E 025°16'0 0.0
2017-Oct-21 04:28N 37°02' E 025°16'0 0.0
2017-Oct-21 03:58N 37°02' E 025°16'0 0.0
2017-Oct-21 03:28N 37°02' E 025°16'0 0.0
2017-Oct-21 02:58N 37°02' E 025°16'0 0.0
2017-Oct-21 02:28N 37°02' E 025°16'0 0.0
2017-Oct-21 01:58N 37°02' E 025°16'0 0.0
2017-Oct-21 01:25N 37°02' E 025°16'0 0.0
2017-Oct-21 00:55N 37°02' E 025°16'0 0.0
2017-Oct-21 00:28N 37°02' E 025°16'0 0.0
2017-Oct-20 23:58N 37°02' E 025°16'0 0.0
2017-Oct-20 23:28N 37°02' E 025°16'0 0.0
2017-Oct-20 22:58N 37°02' E 025°16'0 0.0
2017-Oct-20 22:28N 37°02' E 025°16'0 0.0
2017-Oct-20 21:55N 37°02' E 025°16'0 0.0
2017-Oct-20 21:28N 37°02' E 025°16'0 0.0
2017-Oct-20 20:49N 37°02' E 025°16'0 0.0
2017-Oct-20 20:28N 37°02' E 025°16'0 0.0
2017-Oct-20 19:58N 37°02' E 025°16'0 0.0
2017-Oct-20 19:25N 37°02' E 025°16'0 0.0
2017-Oct-20 18:58N 37°02' E 025°16'0 0.0
2017-Oct-20 18:28N 37°02' E 025°16'0 0.0
2017-Oct-20 17:58N 37°02' E 025°16'0 0.0
2017-Oct-20 17:28N 37°02' E 025°16'0 0.0
2017-Oct-20 16:58N 37°02' E 025°16'0 0.0
2017-Oct-20 16:28N 37°02' E 025°16'0 0.0
2017-Oct-20 15:55N 37°02' E 025°16'0 0.0
2017-Oct-20 15:28N 37°02' E 025°16'0 0.0
2017-Oct-20 14:58N 37°02' E 025°16'0 0.0
2017-Oct-20 13:58N 37°02' E 025°16'0 0.3
2017-Oct-20 13:30N 37°02' E 025°16'4 7.5
2017-Oct-20 13:00N 37°01' E 025°20'0 0.9
2017-Oct-20 12:28N 37°01' E 025°21'1 1.8
2017-Oct-20 12:00N 37°00' E 025°21'1 2.2
2017-Oct-20 11:30N 36°59' E 025°22'  
2017-Oct-14 07:38N 36°59' E 025°18'8 7.5
2017-Oct-14 06:36N 37°06' E 025°22'0 1.2
2017-Oct-14 06:30N 37°06' E 025°22'0 0.0
2017-Oct-14 06:00N 37°06' E 025°22'0 0.0
2017-Oct-14 05:27N 37°06' E 025°22'0 0.0
2017-Oct-14 05:00N 37°06' E 025°22'0 0.0
2017-Oct-14 04:30N 37°06' E 025°22'0 0.0
2017-Oct-14 04:00N 37°06' E 025°22'0 0.0
2017-Oct-14 03:30N 37°06' E 025°22'0 0.0
2017-Oct-14 03:00N 37°06' E 025°22'0 0.0
2017-Oct-14 02:30N 37°06' E 025°22'0 0.0
2017-Oct-14 02:00N 37°06' E 025°22'0 0.0
2017-Oct-14 01:30N 37°06' E 025°22'0 0.0
2017-Oct-14 01:00N 37°06' E 025°22'0 0.0
2017-Oct-14 00:30N 37°06' E 025°22'0 0.0
2017-Oct-14 00:00N 37°06' E 025°22'0 0.0
2017-Oct-13 23:30N 37°06' E 025°22'0 0.0
2017-Oct-13 23:00N 37°06' E 025°22'0 0.0
2017-Oct-13 22:27N 37°06' E 025°22'0 0.0
2017-Oct-13 21:54N 37°06' E 025°22'0 0.0
2017-Oct-13 21:30N 37°06' E 025°22'0 0.0
2017-Oct-13 21:00N 37°06' E 025°22'0 0.0
2017-Oct-13 20:27N 37°06' E 025°22'0 0.0
2017-Oct-13 20:00N 37°06' E 025°22'0 0.0
2017-Oct-13 19:30N 37°06' E 025°22'0 0.0
2017-Oct-13 18:57N 37°06' E 025°22'0 0.0
2017-Oct-13 18:30N 37°06' E 025°22'0 0.0
2017-Oct-13 18:00N 37°06' E 025°22'0 0.0
2017-Oct-13 17:27N 37°06' E 025°22'0 0.0
2017-Oct-13 17:00N 37°06' E 025°22'0 0.0
2017-Oct-13 16:30N 37°06' E 025°22'0 0.0
2017-Oct-13 16:00N 37°06' E 025°22'0 0.0
2017-Oct-13 15:30N 37°06' E 025°22'0 0.0
2017-Oct-13 15:00N 37°06' E 025°22'0 0.0
2017-Oct-13 14:27N 37°06' E 025°22'0 0.0
2017-Oct-13 14:00N 37°06' E 025°22'0 0.0
2017-Oct-13 13:30N 37°06' E 025°22'0 0.0
2017-Oct-13 13:00N 37°06' E 025°22'0 0.0
2017-Oct-13 12:30N 37°06' E 025°22'0 0.0
2017-Oct-13 12:00N 37°06' E 025°22'0 0.0
2017-Oct-13 11:30N 37°06' E 025°22'0 0.0
2017-Oct-13 11:00N 37°06' E 025°22'0 0.0
2017-Oct-13 10:30N 37°06' E 025°22'0 0.0
2017-Oct-13 09:57N 37°06' E 025°22'0 0.0
2017-Oct-13 09:30N 37°06' E 025°22'0 0.0
2017-Oct-13 09:00N 37°06' E 025°22'0 0.0
2017-Oct-13 08:30N 37°06' E 025°22'0 0.0
2017-Oct-13 07:57N 37°06' E 025°22'0 0.0
2017-Oct-13 07:30N 37°06' E 025°22'0 0.0
2017-Oct-13 07:00N 37°06' E 025°22'0 0.0
2017-Oct-13 06:30N 37°06' E 025°22'0 0.0
2017-Oct-13 06:00N 37°06' E 025°22'0 0.0
2017-Oct-13 05:27N 37°06' E 025°22'0 0.0
2017-Oct-13 05:00N 37°06' E 025°22'0 0.0
2017-Oct-13 04:30N 37°06' E 025°22'0 0.0
2017-Oct-13 04:00N 37°06' E 025°22'0 0.0
2017-Oct-13 03:30N 37°06' E 025°22'0 0.0
2017-Oct-13 03:00N 37°06' E 025°22'0 0.0
2017-Oct-13 02:30N 37°06' E 025°22'0 0.0
2017-Oct-13 01:57N 37°06' E 025°22'0 0.0
2017-Oct-13 01:27N 37°06' E 025°22'0 0.0
2017-Oct-13 01:00N 37°06' E 025°22'0 0.0
2017-Oct-13 00:30N 37°06' E 025°22'0 0.0
2017-Oct-13 00:00N 37°06' E 025°22'0 0.0
2017-Oct-12 23:30N 37°06' E 025°22'0 0.0
2017-Oct-12 23:00N 37°06' E 025°22'0 0.0
2017-Oct-12 22:30N 37°06' E 025°22'0 0.0
2017-Oct-12 21:57N 37°06' E 025°22'0 0.0
2017-Oct-12 21:27N 37°06' E 025°22'0 0.0
2017-Oct-12 21:00N 37°06' E 025°22'0 0.0
2017-Oct-12 20:30N 37°06' E 025°22'0 0.0
2017-Oct-12 20:00N 37°06' E 025°22'0 0.0
2017-Oct-12 19:30N 37°06' E 025°22'0 0.0
2017-Oct-12 19:00N 37°06' E 025°22'0 0.0
2017-Oct-12 18:30N 37°06' E 025°22'0 0.0
2017-Oct-12 18:00N 37°06' E 025°22'0 0.0
2017-Oct-12 17:30N 37°06' E 025°22'0 0.0
2017-Oct-12 16:54N 37°06' E 025°22'0 0.0
2017-Oct-12 16:30N 37°06' E 025°22'0 0.0
2017-Oct-12 16:00N 37°06' E 025°22'0 0.0
2017-Oct-12 15:30N 37°06' E 025°22'0 0.0
2017-Oct-12 14:57N 37°06' E 025°22'0 0.0
2017-Oct-12 14:30N 37°06' E 025°22'0 0.0
2017-Oct-12 14:00N 37°06' E 025°22'0 0.0
2017-Oct-12 13:30N 37°06' E 025°22'0 0.0
2017-Oct-12 13:00N 37°06' E 025°22'0 0.0
2017-Oct-12 12:30N 37°06' E 025°22'  
Track history (hours):
 
Tides and Currents Weather Stations Pressure Air Temp Water Temp Dewpoint Dewpoint Depression Visibility Wind Speed Wind Dir Waves Ship Positions

Le'a Le'a Elua

Last reported at 2017-Oct-22 11:54 UTC. Time now 2017-Oct-22 21:20 UTC.
Position N 36°59' E 025°22'.

Length 14 m.

MMSI: 239787500.

Date/timePositionNaut miles runAvg speedWind from/ knotsBaromVisibWave heightAir tempDewpointWater temp
2017-Oct-22 11:54N 36°59' E 025°22'3 8.7
2017-Oct-22 11:30N 37°03' E 025°20'4 7.0
2017-Oct-22 11:00N 37°06' E 025°21'1 1.6
2017-Oct-22 10:28N 37°06' E 025°22'0 0.0
2017-Oct-22 09:58N 37°06' E 025°22'0 0.0
2017-Oct-22 09:28N 37°06' E 025°22'0 0.0
2017-Oct-22 08:58N 37°06' E 025°22'0 0.0
2017-Oct-22 08:28N 37°06' E 025°22'0 0.0
2017-Oct-22 07:55N 37°06' E 025°22'0 0.0
2017-Oct-22 07:25N 37°06' E 025°22'0 0.0
2017-Oct-22 06:58N 37°06' E 025°22'0 0.0
2017-Oct-22 06:28N 37°06' E 025°22'0 0.0
2017-Oct-22 05:58N 37°06' E 025°22'0 0.0
2017-Oct-22 05:28N 37°06' E 025°22'0 0.0
2017-Oct-22 04:58N 37°06' E 025°22'0 0.0
2017-Oct-22 04:25N 37°06' E 025°22'0 0.0
2017-Oct-22 03:58N 37°06' E 025°22'0 0.0
2017-Oct-22 03:28N 37°06' E 025°22'0 0.0
2017-Oct-22 02:58N 37°06' E 025°22'0 0.0
2017-Oct-22 02:28N 37°06' E 025°22'0 0.0
2017-Oct-22 01:58N 37°06' E 025°22'0 0.0
2017-Oct-22 01:28N 37°06' E 025°22'0 0.0
2017-Oct-22 00:58N 37°06' E 025°22'0 0.0
2017-Oct-22 00:28N 37°06' E 025°22'0 0.0
2017-Oct-21 23:55N 37°06' E 025°22'0 0.0
2017-Oct-21 23:28N 37°06' E 025°22'0 0.0
2017-Oct-21 22:58N 37°06' E 025°22'0 0.0
2017-Oct-21 22:28N 37°06' E 025°22'0 0.0
2017-Oct-21 21:58N 37°06' E 025°22'0 0.0
2017-Oct-21 21:28N 37°06' E 025°22'0 0.0
2017-Oct-21 20:55N 37°06' E 025°22'0 0.0
2017-Oct-21 20:25N 37°06' E 025°22'0 0.0
2017-Oct-21 19:55N 37°06' E 025°22'0 0.0
2017-Oct-21 19:28N 37°06' E 025°22'0 0.0
2017-Oct-21 18:58N 37°06' E 025°22'0 0.0
2017-Oct-21 18:25N 37°06' E 025°22'0 0.0
2017-Oct-21 17:58N 37°06' E 025°22'0 0.0
2017-Oct-21 17:28N 37°06' E 025°22'0 0.0
2017-Oct-21 16:58N 37°06' E 025°22'0 0.0
2017-Oct-21 16:28N 37°06' E 025°22'0 0.0
2017-Oct-21 15:58N 37°06' E 025°22'0 0.0
2017-Oct-21 15:28N 37°06' E 025°22'0 0.0
2017-Oct-21 14:58N 37°06' E 025°22'0 0.0
2017-Oct-21 14:28N 37°06' E 025°22'0 0.0
2017-Oct-21 13:28N 37°06' E 025°22'0 0.0
2017-Oct-21 12:58N 37°06' E 025°22'0 0.0
2017-Oct-21 12:28N 37°06' E 025°22'0 0.0
2017-Oct-21 11:58N 37°06' E 025°22'0 0.0
2017-Oct-21 11:28N 37°06' E 025°22'0 0.0
2017-Oct-21 10:58N 37°06' E 025°22'0 0.0
2017-Oct-21 10:28N 37°06' E 025°22'0 0.0
2017-Oct-21 09:58N 37°06' E 025°22'0 0.0
2017-Oct-21 09:28N 37°06' E 025°22'0 0.0
2017-Oct-21 08:55N 37°06' E 025°22'0 0.0
2017-Oct-21 08:28N 37°06' E 025°22'1 3.0
2017-Oct-21 08:00N 37°06' E 025°21'4 8.1
2017-Oct-21 07:30N 37°03' E 025°17'2 2.6
2017-Oct-21 06:52N 37°02' E 025°16'0 0.0
2017-Oct-21 06:28N 37°02' E 025°16'0 0.0
2017-Oct-21 05:58N 37°02' E 025°16'0 0.0
2017-Oct-21 05:25N 37°02' E 025°16'0 0.0
2017-Oct-21 04:58N 37°02' E 025°16'0 0.0
2017-Oct-21 04:28N 37°02' E 025°16'0 0.0
2017-Oct-21 03:58N 37°02' E 025°16'0 0.0
2017-Oct-21 03:28N 37°02' E 025°16'0 0.0
2017-Oct-21 02:58N 37°02' E 025°16'0 0.0
2017-Oct-21 02:28N 37°02' E 025°16'0 0.0
2017-Oct-21 01:58N 37°02' E 025°16'0 0.0
2017-Oct-21 01:25N 37°02' E 025°16'0 0.0
2017-Oct-21 00:55N 37°02' E 025°16'0 0.0
2017-Oct-21 00:28N 37°02' E 025°16'0 0.0
2017-Oct-20 23:58N 37°02' E 025°16'0 0.0
2017-Oct-20 23:28N 37°02' E 025°16'0 0.0
2017-Oct-20 22:58N 37°02' E 025°16'0 0.0
2017-Oct-20 22:28N 37°02' E 025°16'0 0.0
2017-Oct-20 21:55N 37°02' E 025°16'0 0.0
2017-Oct-20 21:28N 37°02' E 025°16'0 0.0
2017-Oct-20 20:49N 37°02' E 025°16'0 0.0
2017-Oct-20 20:28N 37°02' E 025°16'0 0.0
2017-Oct-20 19:58N 37°02' E 025°16'0 0.0
2017-Oct-20 19:25N 37°02' E 025°16'0 0.0
2017-Oct-20 18:58N 37°02' E 025°16'0 0.0
2017-Oct-20 18:28N 37°02' E 025°16'0 0.0
2017-Oct-20 17:58N 37°02' E 025°16'0 0.0
2017-Oct-20 17:28N 37°02' E 025°16'0 0.0
2017-Oct-20 16:58N 37°02' E 025°16'0 0.0
2017-Oct-20 16:28N 37°02' E 025°16'0 0.0
2017-Oct-20 15:55N 37°02' E 025°16'0 0.0
2017-Oct-20 15:28N 37°02' E 025°16'0 0.0
2017-Oct-20 14:58N 37°02' E 025°16'0 0.0
2017-Oct-20 13:58N 37°02' E 025°16'0 0.3
2017-Oct-20 13:30N 37°02' E 025°16'4 7.5
2017-Oct-20 13:00N 37°01' E 025°20'0 0.9
2017-Oct-20 12:28N 37°01' E 025°21'1 1.8
2017-Oct-20 12:00N 37°00' E 025°21'1 2.2
2017-Oct-20 11:30N 36°59' E 025°22'  
2017-Oct-14 07:38N 36°59' E 025°18'8 7.5
2017-Oct-14 06:36N 37°06' E 025°22'0 1.2
2017-Oct-14 06:30N 37°06' E 025°22'0 0.0
2017-Oct-14 06:00N 37°06' E 025°22'0 0.0
2017-Oct-14 05:27N 37°06' E 025°22'0 0.0
2017-Oct-14 05:00N 37°06' E 025°22'0 0.0
2017-Oct-14 04:30N 37°06' E 025°22'0 0.0
2017-Oct-14 04:00N 37°06' E 025°22'0 0.0
2017-Oct-14 03:30N 37°06' E 025°22'0 0.0
2017-Oct-14 03:00N 37°06' E 025°22'0 0.0
2017-Oct-14 02:30N 37°06' E 025°22'0 0.0
2017-Oct-14 02:00N 37°06' E 025°22'0 0.0
2017-Oct-14 01:30N 37°06' E 025°22'0 0.0
2017-Oct-14 01:00N 37°06' E 025°22'0 0.0
2017-Oct-14 00:30N 37°06' E 025°22'0 0.0
2017-Oct-14 00:00N 37°06' E 025°22'0 0.0
2017-Oct-13 23:30N 37°06' E 025°22'0 0.0
2017-Oct-13 23:00N 37°06' E 025°22'0 0.0
2017-Oct-13 22:27N 37°06' E 025°22'0 0.0
2017-Oct-13 21:54N 37°06' E 025°22'0 0.0
2017-Oct-13 21:30N 37°06' E 025°22'0 0.0
2017-Oct-13 21:00N 37°06' E 025°22'0 0.0
2017-Oct-13 20:27N 37°06' E 025°22'0 0.0
2017-Oct-13 20:00N 37°06' E 025°22'0 0.0
2017-Oct-13 19:30N 37°06' E 025°22'0 0.0
2017-Oct-13 18:57N 37°06' E 025°22'0 0.0
2017-Oct-13 18:30N 37°06' E 025°22'0 0.0
2017-Oct-13 18:00N 37°06' E 025°22'0 0.0
2017-Oct-13 17:27N 37°06' E 025°22'0 0.0
2017-Oct-13 17:00N 37°06' E 025°22'0 0.0
2017-Oct-13 16:30N 37°06' E 025°22'0 0.0
2017-Oct-13 16:00N 37°06' E 025°22'0 0.0
2017-Oct-13 15:30N 37°06' E 025°22'0 0.0
2017-Oct-13 15:00N 37°06' E 025°22'0 0.0
2017-Oct-13 14:27N 37°06' E 025°22'0 0.0
2017-Oct-13 14:00N 37°06' E 025°22'0 0.0
2017-Oct-13 13:30N 37°06' E 025°22'0 0.0
2017-Oct-13 13:00N 37°06' E 025°22'0 0.0
2017-Oct-13 12:30N 37°06' E 025°22'0 0.0
2017-Oct-13 12:00N 37°06' E 025°22'0 0.0
2017-Oct-13 11:30N 37°06' E 025°22'0 0.0
2017-Oct-13 11:00N 37°06' E 025°22'0 0.0
2017-Oct-13 10:30N 37°06' E 025°22'0 0.0
2017-Oct-13 09:57N 37°06' E 025°22'0 0.0
2017-Oct-13 09:30N 37°06' E 025°22'0 0.0
2017-Oct-13 09:00N 37°06' E 025°22'0 0.0
2017-Oct-13 08:30N 37°06' E 025°22'0 0.0
2017-Oct-13 07:57N 37°06' E 025°22'0 0.0
2017-Oct-13 07:30N 37°06' E 025°22'0 0.0
2017-Oct-13 07:00N 37°06' E 025°22'0 0.0
2017-Oct-13 06:30N 37°06' E 025°22'0 0.0
2017-Oct-13 06:00N 37°06' E 025°22'0 0.0
2017-Oct-13 05:27N 37°06' E 025°22'0 0.0
2017-Oct-13 05:00N 37°06' E 025°22'0 0.0
2017-Oct-13 04:30N 37°06' E 025°22'0 0.0
2017-Oct-13 04:00N 37°06' E 025°22'0 0.0
2017-Oct-13 03:30N 37°06' E 025°22'0 0.0
2017-Oct-13 03:00N 37°06' E 025°22'0 0.0
2017-Oct-13 02:30N 37°06' E 025°22'0 0.0
2017-Oct-13 01:57N 37°06' E 025°22'0 0.0
2017-Oct-13 01:27N 37°06' E 025°22'0 0.0
2017-Oct-13 01:00N 37°06' E 025°22'0 0.0
2017-Oct-13 00:30N 37°06' E 025°22'0 0.0
2017-Oct-13 00:00N 37°06' E 025°22'0 0.0
2017-Oct-12 23:30N 37°06' E 025°22'0 0.0
2017-Oct-12 23:00N 37°06' E 025°22'0 0.0
2017-Oct-12 22:30N 37°06' E 025°22'0 0.0
2017-Oct-12 21:57N 37°06' E 025°22'0 0.0
2017-Oct-12 21:27N 37°06' E 025°22'0 0.0
2017-Oct-12 21:00N 37°06' E 025°22'0 0.0
2017-Oct-12 20:30N 37°06' E 025°22'0 0.0
2017-Oct-12 20:00N 37°06' E 025°22'0 0.0
2017-Oct-12 19:30N 37°06' E 025°22'0 0.0
2017-Oct-12 19:00N 37°06' E 025°22'0 0.0
2017-Oct-12 18:30N 37°06' E 025°22'0 0.0
2017-Oct-12 18:00N 37°06' E 025°22'0 0.0
2017-Oct-12 17:30N 37°06' E 025°22'0 0.0
2017-Oct-12 16:54N 37°06' E 025°22'0 0.0
2017-Oct-12 16:30N 37°06' E 025°22'0 0.0
2017-Oct-12 16:00N 37°06' E 025°22'0 0.0
2017-Oct-12 15:30N 37°06' E 025°22'0 0.0
2017-Oct-12 14:57N 37°06' E 025°22'0 0.0
2017-Oct-12 14:30N 37°06' E 025°22'0 0.0
2017-Oct-12 14:00N 37°06' E 025°22'0 0.0
2017-Oct-12 13:30N 37°06' E 025°22'0 0.0
2017-Oct-12 13:00N 37°06' E 025°22'0 0.0
2017-Oct-12 12:30N 37°06' E 025°22'  

Dump ship's entire track history